Time;durP1;ratioP1;P1;durP2;ratioP2;P2;SDS_P1;SDS_P2;PMS_P1;PMS_P2;Temp;Humidity;BMP_temperature;BMP_pressure;BME280_temperature;BME280_humidity;BME280_pressure;Samples;Min_cycle;Max_cycle;Signal;HPM_P1;HPM_P2
2021/01/30 00:00:40;;;;;;;28.92;17.75;;;4.60;99.90;;;;;;5094590;28;20028;-75
2021/01/30 00:03:08;;;;;;;29.70;16.73;;;4.60;99.90;;;;;;5094488;28;20350;-74
2021/01/30 00:05:34;;;;;;;31.55;16.52;;;4.60;99.90;;;;;;5093550;28;20028;-74
2021/01/30 00:08:00;;;;;;;36.33;19.27;;;4.50;99.90;;;;;;5092908;28;20370;-75
2021/01/30 00:10:26;;;;;;;35.83;18.30;;;4.30;99.90;;;;;;5076088;28;20428;-75
2021/01/30 00:12:52;;;;;;;42.33;22.13;;;4.30;99.90;;;;;;5076146;28;20028;-75
2021/01/30 00:15:21;;;;;;;37.15;19.13;;;4.10;99.90;;;;;;5093431;28;20020;-75
2021/01/30 00:17:47;;;;;;;43.70;22.00;;;4.00;99.90;;;;;;5076183;28;20028;-74
2021/01/30 00:20:18;;;;;;;42.30;21.25;;;4.00;99.90;;;;;;5094546;28;20031;-75
2021/01/30 00:22:43;;;;;;;53.58;25.17;;;3.80;99.90;;;;;;5094495;28;20035;-75
2021/01/30 00:25:10;;;;;;;47.63;23.00;;;3.80;99.90;;;;;;5093904;28;20028;-74
2021/01/30 00:27:36;;;;;;;53.58;23.83;;;3.70;99.90;;;;;;5092874;28;20373;-75
2021/01/30 00:30:03;;;;;;;48.92;24.70;;;3.70;99.90;;;;;;5092575;28;20021;-75
2021/01/30 00:32:29;;;;;;;52.15;24.17;;;3.70;99.90;;;;;;5092912;28;20028;-74
2021/01/30 00:34:54;;;;;;;58.38;26.40;;;3.60;99.90;;;;;;5093150;28;20030;-75
2021/01/30 00:37:23;;;;;;;57.85;27.25;;;3.50;99.90;;;;;;5093289;28;20101;-75
2021/01/30 00:39:50;;;;;;;61.05;26.05;;;3.40;99.90;;;;;;5092824;28;20077;-75
2021/01/30 00:42:18;;;;;;;61.90;27.33;;;3.40;99.90;;;;;;5094241;28;20075;-75
2021/01/30 00:44:44;;;;;;;52.78;23.40;;;3.30;99.90;;;;;;5093030;28;20028;-75
2021/01/30 00:47:11;;;;;;;59.55;25.85;;;3.30;99.90;;;;;;5093328;28;20101;-75
2021/01/30 00:49:39;;;;;;;63.50;29.67;;;3.20;99.90;;;;;;5076055;28;20052;-74
2021/01/30 00:52:05;;;;;;;64.80;28.40;;;3.00;99.90;;;;;;5075835;28;20442;-75
2021/01/30 00:54:30;;;;;;;62.22;24.63;;;3.10;99.90;;;;;;5092274;28;20051;-75
2021/01/30 00:56:56;;;;;;;65.10;28.67;;;3.10;99.90;;;;;;5093809;28;20403;-74
2021/01/30 00:59:22;;;;;;;58.63;26.20;;;3.10;99.90;;;;;;5092212;28;20427;-74
2021/01/30 01:01:50;;;;;;;56.60;24.73;;;3.00;99.90;;;;;;5075944;28;20073;-75
2021/01/30 01:04:17;;;;;;;53.58;21.98;;;2.80;99.90;;;;;;5075643;28;20068;-75
2021/01/30 01:06:42;;;;;;;47.83;21.52;;;2.80;99.90;;;;;;5092565;28;20031;-75
2021/01/30 01:09:08;;;;;;;47.90;22.13;;;2.80;99.90;;;;;;5076456;28;20024;-74
2021/01/30 01:11:34;;;;;;;52.28;23.15;;;2.80;99.90;;;;;;5097472;28;20028;-74
2021/01/30 01:14:00;;;;;;;45.78;20.10;;;2.60;99.90;;;;;;5096225;28;20020;-74
2021/01/30 01:16:26;;;;;;;45.45;20.88;;;2.70;99.90;;;;;;5096786;28;20024;-74
2021/01/30 01:18:51;;;;;;;43.90;19.65;;;2.70;99.90;;;;;;5097899;28;20024;-74
2021/01/30 01:21:17;;;;;;;39.58;18.92;;;2.60;99.90;;;;;;5097912;28;20073;-74
2021/01/30 01:23:44;;;;;;;45.25;20.40;;;2.50;99.90;;;;;;5096393;28;20350;-75
2021/01/30 01:26:12;;;;;;;48.42;21.50;;;2.40;99.90;;;;;;5095995;28;20024;-75
2021/01/30 01:28:38;;;;;;;47.65;21.58;;;2.40;99.90;;;;;;5079244;28;20024;-74
2021/01/30 01:31:04;;;;;;;44.17;20.80;;;2.50;99.90;;;;;;5097677;28;20031;-75
2021/01/30 01:33:30;;;;;;;49.95;21.90;;;2.40;99.90;;;;;;5097646;28;20062;-75
2021/01/30 01:35:56;;;;;;;46.28;21.42;;;2.30;99.90;;;;;;5096138;28;20036;-75
2021/01/30 01:38:22;;;;;;;48.13;21.90;;;2.30;99.90;;;;;;5096082;28;20023;-74
2021/01/30 01:40:47;;;;;;;49.08;22.45;;;2.30;99.90;;;;;;5078748;28;20070;-74
2021/01/30 01:43:17;;;;;;;41.08;19.52;;;2.20;99.90;;;;;;5096007;28;20020;-75
2021/01/30 01:45:46;;;;;;;43.75;19.73;;;2.20;99.90;;;;;;5095954;28;20070;-74
2021/01/30 01:48:23;;;;;;;42.22;20.15;;;2.10;99.90;;;;;;5095301;28;20101;-74
2021/01/30 01:50:51;;;;;;;45.35;21.00;;;2.10;99.90;;;;;;5097352;28;20020;-75
2021/01/30 01:53:20;;;;;;;46.05;22.45;;;2.00;99.90;;;;;;5097303;28;20025;-74
2021/01/30 01:55:54;;;;;;;46.45;24.20;;;1.90;99.90;;;;;;5095425;28;20020;-74
2021/01/30 01:58:21;;;;;;;43.83;22.45;;;1.80;99.90;;;;;;5096651;28;20025;-74
2021/01/30 02:00:48;;;;;;;48.35;24.40;;;1.80;99.90;;;;;;5096570;28;20031;-74
2021/01/30 02:03:15;;;;;;;49.90;25.30;;;1.70;99.90;;;;;;5095608;28;20068;-74
2021/01/30 02:05:41;;;;;;;47.60;25.45;;;1.70;99.90;;;;;;5078368;28;20169;-74
2021/01/30 02:08:11;;;;;;;47.28;23.20;;;1.70;99.90;;;;;;5078326;28;20492;-75
2021/01/30 02:10:40;;;;;;;49.47;25.90;;;1.60;99.90;;;;;;5095187;28;20027;-74
2021/01/30 02:13:13;;;;;;;48.70;26.40;;;1.60;99.90;;;;;;5095135;28;20020;-74
2021/01/30 02:15:41;;;;;;;;;;;1.50;99.90;;;;;;5097297;28;20019;-74
2021/01/30 02:18:34;;;;;;;49.95;24.98;;;1.60;99.90;;;;;;5096814;28;19911;-75
2021/01/30 02:21:33;;;;;;;50.25;27.85;;;1.60;99.90;;;;;;5094391;28;20058;-74
2021/01/30 02:24:52;;;;;;;52.08;28.27;;;1.50;99.90;;;;;;5077976;28;20034;-74
2021/01/30 02:30:52;;;;;;;58.95;29.70;;;1.40;99.90;;;;;;5112149;27;20355;-74
2021/01/30 02:33:45;;;;;;;55.03;30.10;;;1.30;99.90;;;;;;5095770;28;20031;-75
2021/01/30 02:36:50;;;;;;;61.75;30.63;;;1.20;99.90;;;;;;5093037;28;20027;-74
2021/01/30 02:39:23;;;;;;;55.53;29.98;;;1.20;99.90;;;;;;5109919;28;20020;-74
2021/01/30 02:42:05;;;;;;;57.80;30.50;;;1.20;99.90;;;;;;5110090;28;20115;-75
2021/01/30 02:44:37;;;;;;;55.20;29.65;;;1.20;99.90;;;;;;5110315;28;20050;-75
2021/01/30 02:47:02;;;;;;;59.75;31.10;;;1.10;99.90;;;;;;5109854;28;20028;-75
2021/01/30 02:49:36;;;;;;;58.92;30.13;;;1.10;99.90;;;;;;5092811;28;20136;-75
2021/01/30 02:52:09;;;;;;;53.53;29.52;;;1.00;99.90;;;;;;5110146;28;20024;-75
2021/01/30 02:54:36;;;;;;;60.03;31.25;;;1.10;99.90;;;;;;5111482;28;20027;-75
2021/01/30 02:57:07;;;;;;;66.53;32.97;;;1.00;99.90;;;;;;5092830;28;20016;-74
2021/01/30 02:59:34;;;;;;;63.38;33.05;;;0.90;99.90;;;;;;5109613;28;20023;-73
2021/01/30 03:02:00;;;;;;;61.45;31.08;;;1.00;99.90;;;;;;5109555;28;20023;-74
2021/01/30 03:04:28;;;;;;;64.57;33.67;;;1.00;99.90;;;;;;5111330;28;20028;-75
2021/01/30 03:09:47;;;;;;;70.80;36.25;;;1.00;99.90;;;;;;5112211;27;20347;-75
2021/01/30 03:12:36;;;;;;;76.53;37.13;;;0.90;99.90;;;;;;5110395;28;20080;-75
2021/01/30 03:15:26;;;;;;;73.43;36.83;;;0.90;99.90;;;;;;5109902;28;20110;-74
2021/01/30 03:17:53;;;;;;;71.47;36.30;;;0.80;99.90;;;;;;5111790;28;20036;-74
2021/01/30 03:20:20;;;;;;;76.68;37.03;;;0.80;99.90;;;;;;5093081;28;20024;-75
2021/01/30 03:22:48;;;;;;;66.20;33.88;;;0.80;99.90;;;;;;5092960;28;20019;-74
2021/01/30 03:25:20;;;;;;;61.00;32.33;;;0.90;99.90;;;;;;5110488;28;20024;-75
2021/01/30 03:27:47;;;;;;;61.30;30.67;;;0.80;99.90;;;;;;5111277;28;20020;-75
2021/01/30 03:30:13;;;;;;;48.72;25.75;;;0.80;99.90;;;;;;5110416;28;20020;-74
2021/01/30 03:32:39;;;;;;;41.92;22.80;;;0.80;99.90;;;;;;5109729;28;20114;-75
2021/01/30 03:35:08;;;;;;;43.47;21.30;;;0.80;99.90;;;;;;5092736;28;20073;-75
2021/01/30 03:37:35;;;;;;;50.75;23.58;;;0.70;99.90;;;;;;5092923;28;20020;-75
2021/01/30 03:40:01;;;;;;;39.35;21.90;;;0.80;99.90;;;;;;5092681;28;20493;-75
2021/01/30 03:42:26;;;;;;;38.05;21.75;;;0.80;99.90;;;;;;5093140;28;20066;-75
2021/01/30 03:44:52;;;;;;;38.15;21.55;;;0.80;99.90;;;;;;5109844;28;20028;-75
2021/01/30 03:47:17;;;;;;;35.30;19.85;;;0.90;99.90;;;;;;5092455;28;20046;-75
2021/01/30 03:49:43;;;;;;;31.70;19.38;;;0.80;99.90;;;;;;5093016;28;20027;-75
2021/01/30 03:52:09;;;;;;;31.20;19.23;;;0.80;99.90;;;;;;5109432;28;20031;-74
2021/01/30 03:54:34;;;;;;;32.55;18.95;;;0.90;99.90;;;;;;5109313;28;20016;-75
2021/01/30 03:57:00;;;;;;;33.38;19.00;;;0.70;99.90;;;;;;5109938;28;20077;-74
2021/01/30 03:59:26;;;;;;;29.42;17.65;;;0.70;99.90;;;;;;5111031;28;20115;-74
2021/01/30 04:01:52;;;;;;;34.10;18.98;;;0.70;99.90;;;;;;5111029;28;20324;-74
2021/01/30 04:04:17;;;;;;;31.27;18.85;;;0.80;99.90;;;;;;5109823;28;20104;-75
2021/01/30 04:06:52;;;;;;;30.27;17.83;;;0.80;99.90;;;;;;5109492;28;20059;-75
2021/01/30 04:09:19;;;;;;;26.73;16.20;;;0.80;99.90;;;;;;5108889;28;20447;-75
2021/01/30 04:11:46;;;;;;;27.98;16.90;;;0.70;99.90;;;;;;5109035;28;20024;-75
2021/01/30 04:14:12;;;;;;;27.70;17.88;;;0.70;99.90;;;;;;5109356;28;20085;-75
2021/01/30 04:16:38;;;;;;;28.38;17.23;;;0.70;99.90;;;;;;5109787;28;20024;-74
2021/01/30 04:19:04;;;;;;;27.80;17.13;;;0.70;99.90;;;;;;5106144;28;20491;-75
2021/01/30 04:21:30;;;;;;;28.27;17.27;;;0.70;99.90;;;;;;5097051;28;20038;-74
2021/01/30 04:23:56;;;;;;;25.90;16.13;;;0.70;99.90;;;;;;5095900;28;20052;-75
2021/01/30 04:26:22;;;;;;;25.42;15.45;;;0.70;99.90;;;;;;5095543;28;20028;-75
2021/01/30 04:28:48;;;;;;;20.85;13.63;;;0.70;99.90;;;;;;5095724;28;20041;-75
2021/01/30 04:31:14;;;;;;;16.17;11.27;;;0.70;99.90;;;;;;5078263;28;20362;-74
2021/01/30 04:33:40;;;;;;;17.23;11.45;;;0.60;99.90;;;;;;5094965;28;20035;-74
2021/01/30 04:36:06;;;;;;;17.23;12.10;;;0.60;99.90;;;;;;5099921;22;20488;-78
2021/01/30 04:38:32;;;;;;;16.88;12.30;;;0.60;99.90;;;;;;5041597;28;20474;-78
2021/01/30 04:41:08;;;;;;;16.65;11.38;;;0.70;99.90;;;;;;5058225;28;20036;-78
2021/01/30 04:43:47;;;;;;;17.83;11.48;;;0.60;99.90;;;;;;5041872;28;20024;-77
2021/01/30 04:49:21;;;;;;;19.05;12.38;;;0.60;99.90;;;;;;5112246;27;20748;-74
2021/01/30 04:52:13;;;;;;;18.05;12.68;;;0.60;99.90;;;;;;5093241;28;20027;-74
2021/01/30 04:55:06;;;;;;;17.30;11.33;;;0.70;99.90;;;;;;5111282;28;20024;-74
2021/01/30 04:57:44;;;;;;;14.50;9.95;;;0.60;99.90;;;;;;5111668;28;20719;-74
2021/01/30 05:00:49;;;;;;;17.52;10.60;;;0.70;99.90;;;;;;5111582;28;20035;-74
2021/01/30 05:03:44;;;;;;;17.08;11.30;;;0.70;99.90;;;;;;5110982;28;20027;-74
2021/01/30 05:06:15;;;;;;;17.45;11.32;;;0.70;99.90;;;;;;5092970;28;20027;-74
2021/01/30 05:08:46;;;;;;;15.82;10.88;;;0.60;99.90;;;;;;5111606;28;20024;-74
2021/01/30 05:11:18;;;;;;;14.38;11.02;;;0.60;99.90;;;;;;5110517;28;20020;-74
2021/01/30 05:13:52;;;;;;;15.90;10.87;;;0.60;99.90;;;;;;5111606;28;20023;-73
2021/01/30 05:16:31;;;;;;;16.75;11.10;;;0.70;99.90;;;;;;5093693;28;20028;-74
2021/01/30 05:19:01;;;;;;;16.98;11.98;;;0.60;99.90;;;;;;5111256;28;20043;-74
2021/01/30 05:21:58;;;;;;;15.80;11.32;;;0.70;99.90;;;;;;5109628;28;20522;-74
2021/01/30 05:24:26;;;;;;;20.67;12.20;;;0.70;99.90;;;;;;5109479;28;20120;-74
2021/01/30 05:27:32;;;;;;;17.55;11.93;;;0.60;99.90;;;;;;5109767;28;20077;-74
2021/01/30 05:30:36;;;;;;;17.55;11.30;;;0.60;99.90;;;;;;5110548;28;20031;-74
2021/01/30 05:33:14;;;;;;;16.20;11.10;;;0.60;99.90;;;;;;5110897;28;20024;-74
2021/01/30 05:36:10;;;;;;;14.73;9.93;;;0.70;99.90;;;;;;5109729;28;20024;-74
2021/01/30 05:39:04;;;;;;;15.32;11.20;;;0.70;99.90;;;;;;5110759;28;20073;-74
2021/01/30 05:41:55;;;;;;;17.35;11.77;;;0.70;99.90;;;;;;5109064;28;20028;-74
2021/01/30 05:44:44;;;;;;;18.05;12.23;;;0.70;99.90;;;;;;5109576;28;20443;-74
2021/01/30 05:47:15;;;;;;;16.30;11.32;;;0.60;99.90;;;;;;5094719;28;20046;-74
2021/01/30 05:49:52;;;;;;;17.33;11.27;;;0.70;99.90;;;;;;5109465;28;20077;-74
2021/01/30 05:52:23;;;;;;;17.75;12.48;;;0.70;99.90;;;;;;5092816;28;20060;-74
2021/01/30 05:54:49;;;;;;;17.02;10.23;;;0.70;99.90;;;;;;5091986;28;20119;-74
2021/01/30 05:57:17;;;;;;;14.93;9.65;;;0.70;99.90;;;;;;5110726;28;20063;-74
2021/01/30 05:59:47;;;;;;;16.55;11.18;;;0.70;99.90;;;;;;5101805;28;20024;-74
2021/01/30 06:02:16;;;;;;;18.00;12.02;;;0.70;99.90;;;;;;5079007;28;20024;-74
2021/01/30 06:04:42;;;;;;;18.65;12.20;;;0.60;99.90;;;;;;5095216;28;20024;-74
2021/01/30 06:07:36;;;;;;;19.55;12.18;;;0.70;99.90;;;;;;5078305;28;20118;-74
2021/01/30 06:10:34;;;;;;;20.02;13.05;;;0.70;99.90;;;;;;5095784;28;20368;-74
2021/01/30 06:13:12;;;;;;;19.30;12.73;;;0.60;99.90;;;;;;5080488;28;20027;-74
2021/01/30 06:15:41;;;;;;;22.38;13.85;;;0.60;99.90;;;;;;5095574;28;20111;-74
2021/01/30 06:18:35;;;;;;;20.85;13.60;;;0.60;99.90;;;;;;5095553;28;20028;-74
2021/01/30 06:21:07;;;;;;;23.20;14.85;;;0.60;99.90;;;;;;5096423;28;20051;-74
2021/01/30 06:23:33;;;;;;;23.77;15.05;;;0.50;99.90;;;;;;5078071;28;20032;-74
2021/01/30 06:26:19;;;;;;;22.42;14.27;;;0.60;99.90;;;;;;5078534;28;20024;-74
2021/01/30 06:28:55;;;;;;;23.83;14.68;;;0.60;99.90;;;;;;5094722;28;20035;-74
2021/01/30 06:31:40;;;;;;;23.15;14.68;;;0.60;99.90;;;;;;5077950;28;20027;-74
2021/01/30 06:34:30;;;;;;;26.92;15.15;;;0.60;99.90;;;;;;5096215;28;20418;-74
2021/01/30 06:36:56;;;;;;;24.17;15.48;;;0.60;99.90;;;;;;5095407;28;20054;-74
2021/01/30 06:39:33;;;;;;;23.00;15.43;;;0.50;99.90;;;;;;5094606;28;20051;-74
2021/01/30 06:42:12;;;;;;;25.85;15.27;;;0.40;99.90;;;;;;5095342;28;20028;-74
2021/01/30 06:44:39;;;;;;;25.75;15.48;;;0.50;99.90;;;;;;5077605;28;20529;-74
2021/01/30 06:47:21;;;;;;;26.10;15.52;;;0.50;99.90;;;;;;5078178;28;20121;-74
2021/01/30 06:49:52;;;;;;;27.43;16.90;;;0.50;99.90;;;;;;5095048;28;20027;-74
2021/01/30 06:55:09;;;;;;;27.60;16.73;;;0.50;99.90;;;;;;5112354;27;20348;-73
2021/01/30 06:57:43;;;;;;;29.15;16.95;;;0.50;99.90;;;;;;5111755;28;20077;-74
2021/01/30 07:00:25;;;;;;;28.27;16.65;;;0.50;99.90;;;;;;5111934;28;20479;-74
2021/01/30 07:03:03;;;;;;;28.27;16.65;;;0.50;99.90;;;;;;5110450;28;20036;-74
2021/01/30 07:05:41;;;;;;;25.27;16.30;;;0.50;99.90;;;;;;5110414;28;20051;-74
2021/01/30 07:08:26;;;;;;;27.08;16.10;;;0.50;99.90;;;;;;5110030;28;20148;-73
2021/01/30 07:11:31;;;;;;;25.92;15.95;;;0.50;99.90;;;;;;5111762;28;20024;-74
2021/01/30 07:17:01;;;;;;;29.30;16.13;;;0.50;99.90;;;;;;5112287;27;20779;-73
2021/01/30 07:19:46;;;;;;;28.13;16.38;;;0.40;99.90;;;;;;5110074;28;20372;-73
2021/01/30 07:22:16;;;;;;;27.13;16.02;;;0.40;99.90;;;;;;5110613;28;20116;-73
2021/01/30 07:24:51;;;;;;;28.52;17.45;;;0.50;99.90;;;;;;5093060;28;20023;-73
2021/01/30 07:27:24;;;;;;;27.88;16.05;;;0.50;99.90;;;;;;5110577;28;20460;-73
2021/01/30 07:30:03;;;;;;;26.48;16.08;;;0.50;99.90;;;;;;5110393;28;20112;-73
2021/01/30 07:32:40;;;;;;;28.30;16.35;;;0.40;99.90;;;;;;5111445;28;20024;-74
2021/01/30 07:35:27;;;;;;;23.85;15.23;;;0.40;99.90;;;;;;5111065;28;20063;-74
2021/01/30 07:38:32;;;;;;;24.17;15.10;;;0.50;99.90;;;;;;5109789;28;20023;-74
2021/01/30 07:41:01;;;;;;;23.98;13.10;;;0.50;99.90;;;;;;5093398;28;20051;-73
2021/01/30 07:43:42;;;;;;;21.73;12.60;;;0.60;99.90;;;;;;5093169;28;20479;-73
2021/01/30 07:46:16;;;;;;;22.23;11.23;;;0.60;99.90;;;;;;5092746;28;20505;-74
2021/01/30 07:48:51;;;;;;;18.60;11.48;;;0.60;99.90;;;;;;5109940;28;20028;-74
2021/01/30 07:51:24;;;;;;;20.08;10.95;;;0.60;99.90;;;;;;5110263;28;20059;-73
2021/01/30 07:53:50;;;;;;;19.42;10.90;;;0.60;99.90;;;;;;5093776;28;20028;-74
2021/01/30 07:56:28;;;;;;;19.60;12.20;;;0.70;99.90;;;;;;5109751;28;20039;-74
2021/01/30 07:59:20;;;;;;;23.75;13.88;;;0.70;99.90;;;;;;5109793;28;20430;-74
2021/01/30 08:02:00;;;;;;;24.05;13.75;;;0.60;99.90;;;;;;5111178;28;20043;-74
2021/01/30 08:04:57;;;;;;;23.27;13.68;;;0.60;99.90;;;;;;5109322;28;20028;-74
2021/01/30 08:07:54;;;;;;;26.70;14.90;;;0.70;99.90;;;;;;5095034;28;20460;-74
2021/01/30 08:10:26;;;;;;;24.05;14.20;;;0.70;99.90;;;;;;5110511;28;20020;-75
2021/01/30 08:13:11;;;;;;;23.83;14.20;;;0.70;99.90;;;;;;5110979;28;20039;-74
2021/01/30 08:15:43;;;;;;;22.30;13.20;;;0.70;99.90;;;;;;5109087;28;20040;-74
2021/01/30 08:18:33;;;;;;;26.00;14.38;;;0.70;99.90;;;;;;5109063;28;20027;-74
2021/01/30 08:24:26;;;;;;;23.33;14.30;;;0.80;99.90;;;;;;5112265;27;20400;-74
2021/01/30 08:27:09;;;;;;;27.92;15.13;;;0.80;99.90;;;;;;5110172;28;20077;-74
2021/01/30 08:29:40;;;;;;;26.63;14.90;;;0.70;99.90;;;;;;5110130;28;20487;-74
2021/01/30 08:32:28;;;;;;;25.15;14.48;;;0.70;99.90;;;;;;5110109;28;20480;-74
2021/01/30 08:34:58;;;;;;;26.83;15.77;;;0.80;99.90;;;;;;5109997;28;20467;-74
2021/01/30 08:37:32;;;;;;;23.27;14.38;;;1.00;99.90;;;;;;5110290;28;20032;-74
2021/01/30 08:40:12;;;;;;;24.45;14.65;;;1.20;99.90;;;;;;5111504;28;20023;-74
2021/01/30 08:42:55;;;;;;;25.42;14.90;;;1.00;99.90;;;;;;5110165;28;20020;-74
2021/01/30 08:45:27;;;;;;;20.55;11.98;;;0.90;99.90;;;;;;5110664;28;20043;-74
2021/01/30 08:50:49;;;;;;;30.60;17.15;;;1.00;99.90;;;;;;5071636;28;20353;-74
2021/01/30 08:53:33;;;;;;;27.83;16.08;;;1.00;99.90;;;;;;5070194;28;20029;-74
2021/01/30 08:56:04;;;;;;;28.17;15.63;;;0.90;99.90;;;;;;5071358;28;20041;-74
2021/01/30 09:01:29;;;;;;;25.48;14.18;;;0.90;99.90;;;;;;5091897;28;20390;-73
2021/01/30 09:03:57;;;;;;;23.42;13.65;;;1.00;99.90;;;;;;5091278;28;20021;-73
2021/01/30 09:06:48;;;;;;;21.45;13.30;;;1.10;99.90;;;;;;5091570;28;20034;-74
2021/01/30 09:09:18;;;;;;;22.33;13.20;;;1.00;99.90;;;;;;5091223;28;20051;-75
2021/01/30 09:12:02;;;;;;;24.33;13.50;;;1.10;99.90;;;;;;5090025;28;20451;-74
2021/01/30 09:17:31;;;;;;;23.10;13.43;;;1.10;99.90;;;;;;5112163;27;20668;-74
2021/01/30 09:20:10;;;;;;;20.83;12.55;;;1.70;99.90;;;;;;5111974;28;20242;-73
2021/01/30 09:22:52;;;;;;;18.38;11.52;;;1.70;99.90;;;;;;5093690;28;20111;-74
2021/01/30 09:25:54;;;;;;;16.50;11.15;;;1.90;99.90;;;;;;5094912;28;20024;-74
2021/01/30 09:28:25;;;;;;;15.95;10.23;;;2.00;99.90;;;;;;5110005;28;20383;-73
2021/01/30 09:30:57;;;;;;;16.08;10.50;;;2.20;99.90;;;;;;5092942;28;20062;-74
2021/01/30 09:33:31;;;;;;;15.87;10.50;;;2.40;99.90;;;;;;5111705;28;20023;-74
2021/01/30 09:36:21;;;;;;;16.60;9.93;;;2.20;99.90;;;;;;5110087;28;20421;-74
2021/01/30 09:38:49;;;;;;;16.27;10.82;;;2.10;99.90;;;;;;5109916;28;20471;-74
2021/01/30 09:41:33;;;;;;;16.40;10.60;;;2.10;99.90;;;;;;5109703;28;20028;-74
2021/01/30 09:44:06;;;;;;;17.33;10.30;;;2.20;99.90;;;;;;5110412;28;20027;-74
2021/01/30 09:46:36;;;;;;;15.48;10.35;;;2.10;99.90;;;;;;5109554;28;20046;-74
2021/01/30 09:49:05;;;;;;;14.85;9.85;;;2.40;99.90;;;;;;5109575;28;20020;-74
2021/01/30 09:51:31;;;;;;;14.77;10.27;;;2.50;99.90;;;;;;5110336;28;20042;-74
2021/01/30 09:54:00;;;;;;;12.75;9.15;;;3.40;99.90;;;;;;5111067;28;20508;-74
2021/01/30 09:56:25;;;;;;;13.13;9.27;;;4.10;99.90;;;;;;5109335;28;20027;-74
2021/01/30 09:58:55;;;;;;;9.82;8.52;;;4.60;99.90;;;;;;5111202;28;20416;-74
2021/01/30 10:01:36;;;;;;;12.18;8.73;;;4.90;99.90;;;;;;5111092;28;20024;-74
2021/01/30 10:04:24;;;;;;;11.73;7.43;;;5.00;99.90;;;;;;5110557;28;20525;-74
2021/01/30 10:06:51;;;;;;;7.50;6.53;;;6.00;99.90;;;;;;5111054;28;20376;-74
2021/01/30 10:09:22;;;;;;;11.50;8.23;;;5.40;99.90;;;;;;5110747;28;20106;-74
2021/01/30 10:11:54;;;;;;;12.68;8.60;;;4.20;99.90;;;;;;5109469;28;20028;-74
2021/01/30 10:14:21;;;;;;;13.73;8.82;;;3.60;99.90;;;;;;5109767;28;20024;-74
2021/01/30 10:16:58;;;;;;;11.13;7.93;;;3.50;99.90;;;;;;5108893;28;20048;-74
2021/01/30 10:19:28;;;;;;;12.82;8.63;;;3.10;99.90;;;;;;5108933;28;20384;-74
2021/01/30 10:21:54;;;;;;;12.15;8.32;;;3.00;99.90;;;;;;5109328;28;20032;-74
2021/01/30 10:24:29;;;;;;;12.43;8.73;;;2.90;99.90;;;;;;5092069;28;20016;-74
2021/01/30 10:27:26;;;;;;;10.50;8.43;;;2.80;99.90;;;;;;5087447;28;20423;-74
2021/01/30 10:29:55;;;;;;;12.88;8.73;;;2.60;99.90;;;;;;5078961;28;20460;-74
2021/01/30 10:32:31;;;;;;;14.07;8.98;;;2.60;99.90;;;;;;5095180;28;20024;-74
2021/01/30 10:35:01;;;;;;;13.32;9.00;;;2.80;99.90;;;;;;5095556;28;20107;-74
2021/01/30 10:37:43;;;;;;;14.15;9.32;;;3.00;99.90;;;;;;5095434;28;20023;-74
2021/01/30 10:40:34;;;;;;;13.55;8.90;;;2.90;99.90;;;;;;5078723;28;20081;-74
2021/01/30 10:43:02;;;;;;;13.25;8.90;;;3.00;99.90;;;;;;5095830;28;20047;-74
2021/01/30 10:45:30;;;;;;;13.63;9.10;;;3.40;99.90;;;;;;5078116;28;20093;-74
2021/01/30 10:48:03;;;;;;;13.57;9.88;;;3.10;99.90;;;;;;5094895;28;20055;-74
2021/01/30 10:50:33;;;;;;;13.33;9.53;;;2.90;99.90;;;;;;5096419;28;20178;-74
2021/01/30 10:55:56;;;;;;;13.30;9.43;;;2.60;99.90;;;;;;5112153;27;20355;-73
2021/01/30 11:01:07;;;;;;;16.55;10.38;;;2.40;99.90;;;;;;5091791;28;20824;-73
2021/01/30 11:06:46;;;;;;;14.32;9.25;;;2.40;99.90;;;;;;5111919;27;20405;-73
2021/01/30 11:09:17;;;;;;;15.20;9.98;;;2.70;99.90;;;;;;5110331;28;20081;-73
2021/01/30 11:11:45;;;;;;;12.55;8.65;;;2.80;99.90;;;;;;5110359;28;20020;-73
2021/01/30 11:14:29;;;;;;;13.45;8.90;;;2.90;99.90;;;;;;5110011;28;20026;-74
2021/01/30 11:16:56;;;;;;;12.80;9.05;;;2.90;99.90;;;;;;5111539;28;20424;-73
2021/01/30 11:19:27;;;;;;;17.13;9.98;;;3.00;99.90;;;;;;5109958;28;20180;-74
2021/01/30 11:22:17;;;;;;;14.90;9.90;;;2.90;99.90;;;;;;5110410;28;20030;-73
2021/01/30 11:24:49;;;;;;;13.35;9.70;;;2.90;99.90;;;;;;5109724;28;20066;-74
2021/01/30 11:27:38;;;;;;;15.68;10.27;;;3.10;99.90;;;;;;5093600;28;20035;-73
2021/01/30 11:30:14;;;;;;;14.13;10.13;;;3.50;99.90;;;;;;5111226;28;20062;-73
2021/01/30 11:32:41;;;;;;;14.65;10.13;;;3.60;99.90;;;;;;5111281;28;20024;-73
2021/01/30 11:35:07;;;;;;;16.83;12.02;;;3.40;99.90;;;;;;5110055;28;20027;-74
2021/01/30 11:37:33;;;;;;;16.17;10.68;;;3.10;99.90;;;;;;5109972;28;20038;-73
2021/01/30 11:40:09;;;;;;;17.92;11.10;;;2.90;99.90;;;;;;5110223;28;20052;-73
2021/01/30 11:42:34;;;;;;;14.43;9.65;;;2.80;99.90;;;;;;5092555;28;20123;-74
2021/01/30 11:45:00;;;;;;;16.60;10.38;;;2.60;99.90;;;;;;5109749;28;20107;-74
2021/01/30 11:47:25;;;;;;;15.48;10.43;;;2.60;99.90;;;;;;5092485;28;20020;-74
2021/01/30 11:49:51;;;;;;;14.50;9.98;;;2.70;99.90;;;;;;5109609;28;20430;-73
2021/01/30 11:52:18;;;;;;;16.48;9.85;;;2.70;99.90;;;;;;5109667;28;20464;-73
2021/01/30 11:54:43;;;;;;;14.80;9.48;;;2.70;99.90;;;;;;5109674;28;20081;-74
2021/01/30 11:57:09;;;;;;;17.38;9.80;;;2.60;99.90;;;;;;5092300;28;20115;-73
2021/01/30 11:59:35;;;;;;;12.55;8.95;;;2.70;99.90;;;;;;5111030;28;20055;-74
2021/01/30 12:02:00;;;;;;;15.27;9.05;;;2.60;99.90;;;;;;5110395;28;20047;-74
2021/01/30 12:04:26;;;;;;;15.75;9.10;;;2.60;99.90;;;;;;5109422;28;20051;-74
2021/01/30 12:06:51;;;;;;;16.38;9.82;;;2.70;99.90;;;;;;5109044;28;20012;-74
2021/01/30 12:09:17;;;;;;;12.63;8.45;;;2.70;99.90;;;;;;5109413;28;20023;-74
2021/01/30 12:11:42;;;;;;;11.77;7.80;;;2.70;99.90;;;;;;5110825;28;20471;-73
2021/01/30 12:14:08;;;;;;;11.52;7.28;;;2.60;99.90;;;;;;5109582;28;20039;-73
2021/01/30 12:16:33;;;;;;;11.00;7.60;;;2.60;99.90;;;;;;5102929;28;20081;-73
2021/01/30 12:18:59;;;;;;;12.85;7.80;;;2.50;99.90;;;;;;5095635;28;20089;-73
2021/01/30 12:21:25;;;;;;;10.15;7.07;;;2.60;99.90;;;;;;5095844;28;20025;-73
2021/01/30 12:23:51;;;;;;;10.05;6.93;;;2.70;99.90;;;;;;5097002;28;20028;-74
2021/01/30 12:26:22;;;;;;;11.20;6.88;;;2.90;99.90;;;;;;5078967;28;20358;-74
2021/01/30 12:28:48;;;;;;;10.05;7.03;;;2.90;99.90;;;;;;5096884;28;20181;-73
2021/01/30 12:31:14;;;;;;;10.57;7.43;;;2.70;99.90;;;;;;5095422;28;20059;-74
2021/01/30 12:33:40;;;;;;;11.32;7.28;;;2.70;99.90;;;;;;5095608;28;20048;-73
2021/01/30 12:36:07;;;;;;;10.95;7.80;;;2.60;99.90;;;;;;5096753;28;20104;-73
2021/01/30 12:38:33;;;;;;;11.02;7.35;;;2.70;99.90;;;;;;5078623;28;20028;-73
2021/01/30 12:41:00;;;;;;;11.63;7.57;;;2.60;99.90;;;;;;5095419;28;20035;-73
2021/01/30 12:43:25;;;;;;;10.65;7.10;;;2.70;99.90;;;;;;5078088;28;20028;-73
2021/01/30 12:45:51;;;;;;;11.88;8.10;;;2.70;99.90;;;;;;5095013;28;20335;-73
2021/01/30 12:48:17;;;;;;;11.27;7.75;;;2.60;99.90;;;;;;5095369;28;20028;-73
2021/01/30 12:50:44;;;;;;;10.98;7.78;;;2.60;99.90;;;;;;5077762;28;20026;-73
2021/01/30 12:53:10;;;;;;;13.77;7.75;;;2.60;99.90;;;;;;5077867;28;20020;-73
2021/01/30 12:55:36;;;;;;;9.68;7.00;;;2.70;99.90;;;;;;5095204;28;20070;-73
2021/01/30 12:58:12;;;;;;;10.73;6.65;;;2.70;99.90;;;;;;5078503;28;20028;-73
2021/01/30 13:00:37;;;;;;;10.10;6.85;;;2.60;99.90;;;;;;5077818;28;20028;-73
2021/01/30 13:03:03;;;;;;;10.90;6.30;;;2.60;99.90;;;;;;5094703;28;20435;-73
2021/01/30 13:05:29;;;;;;;10.35;6.93;;;2.60;99.90;;;;;;5095538;28;20083;-73
2021/01/30 13:07:55;;;;;;;10.07;6.95;;;2.70;99.90;;;;;;5094667;28;20031;-73
2021/01/30 13:10:21;;;;;;;10.27;6.88;;;2.70;99.90;;;;;;5094206;28;20460;-73
2021/01/30 13:12:47;;;;;;;9.75;7.00;;;2.70;99.90;;;;;;5094187;28;20020;-72
2021/01/30 13:15:13;;;;;;;8.98;6.43;;;2.70;99.90;;;;;;5095630;28;20020;-73
2021/01/30 13:17:39;;;;;;;9.85;6.03;;;2.70;99.90;;;;;;5095858;28;20040;-72
2021/01/30 13:20:05;;;;;;;17.35;6.95;;;2.70;99.90;;;;;;5095901;28;20166;-72
2021/01/30 13:22:33;;;;;;;10.55;6.45;;;2.70;99.90;;;;;;5077081;28;20020;-73
2021/01/30 13:24:59;;;;;;;11.57;7.47;;;2.70;99.90;;;;;;5094570;28;20054;-72
2021/01/30 13:27:25;;;;;;;16.48;7.63;;;2.80;99.90;;;;;;5094304;28;20063;-72
2021/01/30 13:29:51;;;;;;;13.32;8.10;;;2.90;99.90;;;;;;5076994;28;20369;-72
2021/01/30 13:32:16;;;;;;;12.80;8.32;;;2.80;99.90;;;;;;5076983;28;20388;-72
2021/01/30 13:34:42;;;;;;;12.60;8.20;;;2.60;99.90;;;;;;5094996;28;20028;-72
2021/01/30 13:37:08;;;;;;;11.85;7.93;;;2.60;99.90;;;;;;5094156;28;20028;-72
2021/01/30 13:39:33;;;;;;;11.63;8.07;;;2.70;99.90;;;;;;5094059;28;20035;-73
2021/01/30 13:41:59;;;;;;;12.77;7.85;;;2.70;99.90;;;;;;5095426;28;20024;-73
2021/01/30 13:44:26;;;;;;;12.38;7.47;;;2.60;99.90;;;;;;5076649;28;20056;-74